createdAt,value
2018-04-15T00:01:31.477Z,7.30
2018-04-15T00:03:58.199Z,5.70
2018-04-15T00:06:24.958Z,5.80
2018-04-15T00:08:51.675Z,8.23
2018-04-15T00:11:18.384Z,7.40
2018-04-15T00:13:45.087Z,6.37
2018-04-15T00:16:11.847Z,7.07
2018-04-15T00:18:38.559Z,6.30
2018-04-15T00:21:05.267Z,5.70
2018-04-15T00:23:32.136Z,6.23
2018-04-15T00:25:58.831Z,5.70
2018-04-15T00:28:25.572Z,6.30
2018-04-15T00:30:52.276Z,6.20
2018-04-15T00:33:18.984Z,6.30
2018-04-15T00:35:45.693Z,6.37
2018-04-15T00:38:12.450Z,5.40
2018-04-15T00:40:39.191Z,6.33
2018-04-15T00:43:05.888Z,5.80
2018-04-15T00:45:32.596Z,6.73
2018-04-15T00:47:59.300Z,5.80
2018-04-15T00:50:26.001Z,6.07
2018-04-15T00:52:52.739Z,6.70
2018-04-15T00:55:19.447Z,6.07
2018-04-15T00:57:46.156Z,6.47
2018-04-15T01:00:12.931Z,6.13
2018-04-15T01:02:39.655Z,6.37
2018-04-15T01:05:06.399Z,6.07
2018-04-15T01:07:33.120Z,5.40
2018-04-15T01:09:59.891Z,6.10
2018-04-15T01:12:26.626Z,5.83
2018-04-15T01:14:53.327Z,6.07
2018-04-15T01:17:20.035Z,6.20
2018-04-15T01:19:47.016Z,6.10
2018-04-15T01:22:13.716Z,5.77
2018-04-15T01:24:40.420Z,5.97
2018-04-15T01:27:07.115Z,5.90
2018-04-15T01:29:33.811Z,6.50
2018-04-15T01:32:00.514Z,6.23
2018-04-15T01:34:27.271Z,5.93
2018-04-15T01:36:53.970Z,5.30
2018-04-15T01:39:20.870Z,5.80
2018-04-15T01:41:47.588Z,5.70
2018-04-15T01:44:14.279Z,5.53
2018-04-15T01:46:40.975Z,5.80
2018-04-15T01:49:07.679Z,5.43
2018-04-15T01:51:34.385Z,5.87
2018-04-15T01:54:01.119Z,5.70
2018-04-15T01:56:27.819Z,5.43
2018-04-15T01:58:54.524Z,5.60
2018-04-15T02:01:21.255Z,5.80
2018-04-15T02:03:47.986Z,5.70
2018-04-15T02:06:14.713Z,5.90
2018-04-15T02:08:41.446Z,5.03
2018-04-15T02:11:08.145Z,5.43
2018-04-15T02:13:34.841Z,6.03
2018-04-15T02:16:01.540Z,5.13
2018-04-15T02:18:28.300Z,5.70
2018-04-15T02:20:55.000Z,5.57
2018-04-15T02:23:21.695Z,5.23
2018-04-15T02:25:48.392Z,5.50
2018-04-15T02:28:15.091Z,5.80
2018-04-15T02:30:41.824Z,5.97
2018-04-15T02:33:08.528Z,5.87
2018-04-15T02:35:35.227Z,5.73
2018-04-15T02:38:01.932Z,5.93
2018-04-15T02:40:28.638Z,5.30
2018-04-15T02:42:55.367Z,5.57
2018-04-15T02:45:22.089Z,5.30
2018-04-15T02:47:48.803Z,5.33
2018-04-15T02:50:15.519Z,5.80
2018-04-15T02:52:42.217Z,5.20
2018-04-15T02:55:08.948Z,5.90
2018-04-15T02:57:35.648Z,6.10
2018-04-15T03:00:02.362Z,6.33
2018-04-15T03:02:29.063Z,6.00
2018-04-15T03:04:55.767Z,6.17
2018-04-15T03:07:22.495Z,5.93
2018-04-15T03:09:49.199Z,5.90
2018-04-15T03:12:15.900Z,6.43
2018-04-15T03:14:42.607Z,5.90
2018-04-15T03:17:09.307Z,6.30
2018-04-15T03:19:36.036Z,5.77
2018-04-15T03:22:02.741Z,6.00
2018-04-15T03:24:29.450Z,6.30
2018-04-15T03:26:56.147Z,5.80
2018-04-15T03:29:22.844Z,5.80
2018-04-15T03:31:49.573Z,5.93
2018-04-15T03:34:16.263Z,5.83
2018-04-15T03:36:42.967Z,5.93
2018-04-15T03:39:09.665Z,6.20
2018-04-15T03:41:36.359Z,6.00
2018-04-15T03:44:03.094Z,5.43
2018-04-15T03:46:29.795Z,6.10
2018-04-15T03:48:56.495Z,6.10
2018-04-15T03:51:23.192Z,5.27
2018-04-15T03:53:49.892Z,6.07
2018-04-15T03:56:16.614Z,5.43
2018-04-15T03:58:43.319Z,5.40
2018-04-15T04:01:10.012Z,5.07
2018-04-15T04:03:36.721Z,5.33
2018-04-15T04:06:03.440Z,5.00
2018-04-15T04:08:30.167Z,5.50
2018-04-15T04:10:56.904Z,5.47
2018-04-15T04:13:23.607Z,5.67
2018-04-15T04:15:50.300Z,5.30
2018-04-15T04:18:22.858Z,5.93
2018-04-15T04:20:55.405Z,5.77
2018-04-15T04:23:27.807Z,5.50
2018-04-15T04:26:00.296Z,5.87
2018-04-15T04:28:26.999Z,5.17
2018-04-15T04:30:53.704Z,5.73
2018-04-15T04:33:20.399Z,5.30
2018-04-15T04:35:47.134Z,5.50
2018-04-15T04:38:13.839Z,5.37
2018-04-15T04:40:40.555Z,5.60
2018-04-15T04:43:07.265Z,5.50
2018-04-15T04:45:33.967Z,5.00
2018-04-15T04:48:00.691Z,5.50
2018-04-15T04:50:27.396Z,5.33
2018-04-15T04:52:54.095Z,5.50
2018-04-15T04:55:20.807Z,5.70
2018-04-15T04:57:47.524Z,5.53
2018-04-15T05:00:14.253Z,5.60
2018-04-15T05:02:40.955Z,6.00
2018-04-15T05:05:07.655Z,5.77
2018-04-15T05:07:34.392Z,5.60
2018-04-15T05:10:01.092Z,5.43
2018-04-15T05:12:27.823Z,5.30
2018-04-15T05:14:54.521Z,5.77
2018-04-15T05:17:21.227Z,5.60
2018-04-15T05:19:47.931Z,5.77
2018-04-15T05:22:14.648Z,5.67
2018-04-15T05:24:41.367Z,5.60
2018-04-15T05:27:08.073Z,5.43
2018-04-15T05:29:34.803Z,5.50
2018-04-15T05:32:01.505Z,6.10
2018-04-15T05:34:28.204Z,5.57
2018-04-15T05:36:54.935Z,5.60
2018-04-15T05:39:21.643Z,5.97
2018-04-15T05:41:48.339Z,6.00
2018-04-15T05:44:15.068Z,6.20
2018-04-15T05:46:41.775Z,6.20
2018-04-15T05:49:08.622Z,5.43
2018-04-15T05:51:35.327Z,6.00
2018-04-15T05:54:02.064Z,5.77
2018-04-15T05:56:28.792Z,6.10
2018-04-15T05:58:55.487Z,6.17
2018-04-15T06:01:22.196Z,6.20
2018-04-15T06:03:48.907Z,5.50
2018-04-15T06:06:15.607Z,5.57
2018-04-15T06:08:42.337Z,5.97
2018-04-15T06:11:09.032Z,6.03
2018-04-15T06:13:35.745Z,6.10
2018-04-15T06:16:02.460Z,5.93
2018-04-15T06:18:29.170Z,5.97
2018-04-15T06:20:55.900Z,6.40
2018-04-15T06:23:22.597Z,6.10
2018-04-15T06:25:49.298Z,5.87
2018-04-15T06:28:16.001Z,5.80
2018-04-15T06:30:42.701Z,5.97
2018-04-15T06:33:09.440Z,6.10
2018-04-15T06:35:36.139Z,5.70
2018-04-15T06:38:02.839Z,5.57
2018-04-15T06:40:29.543Z,5.73
2018-04-15T06:42:56.257Z,5.73
2018-04-15T06:45:22.985Z,6.10
2018-04-15T06:47:49.699Z,6.43
2018-04-15T06:50:16.391Z,5.87
2018-04-15T06:52:43.146Z,6.60
2018-04-15T06:55:09.850Z,6.40
2018-04-15T06:57:36.589Z,7.37
2018-04-15T07:00:03.288Z,6.60
2018-04-15T07:02:29.983Z,5.83
2018-04-15T07:04:56.683Z,6.70
2018-04-15T07:07:23.386Z,6.17
2018-04-15T07:09:50.114Z,6.27
2018-04-15T07:12:17.151Z,6.10
2018-04-15T07:14:43.863Z,6.33
2018-04-15T07:17:10.571Z,6.33
2018-04-15T07:19:37.282Z,6.93
2018-04-15T07:22:04.071Z,5.87
2018-04-15T07:24:30.768Z,5.80
2018-04-15T07:26:57.466Z,6.03
2018-04-15T07:29:24.171Z,5.70
2018-04-15T07:31:50.896Z,6.93
2018-04-15T07:34:17.621Z,6.00
2018-04-15T07:36:44.319Z,6.83
2018-04-15T07:39:11.036Z,6.23
2018-04-15T07:41:37.754Z,6.47
2018-04-15T07:44:04.459Z,6.57
2018-04-15T07:46:31.230Z,6.30
2018-04-15T07:48:57.940Z,6.37
2018-04-15T07:51:24.647Z,7.07
2018-04-15T07:53:51.359Z,6.70
2018-04-15T07:56:18.118Z,6.50
2018-04-15T07:58:45.125Z,6.53
2018-04-15T08:01:11.823Z,6.37
2018-04-15T08:03:38.583Z,6.77
2018-04-15T08:06:05.300Z,7.70
2018-04-15T08:08:32.003Z,7.07
2018-04-15T08:10:58.735Z,7.47
2018-04-15T08:13:25.449Z,7.77
2018-04-15T08:15:52.155Z,7.00
2018-04-15T08:18:18.860Z,8.10
2018-04-15T08:20:45.564Z,7.77
2018-04-15T08:23:12.331Z,8.30
2018-04-15T08:25:39.061Z,8.17
2018-04-15T08:28:05.768Z,8.23
2018-04-15T08:30:32.471Z,8.23
2018-04-15T08:32:59.181Z,8.33
2018-04-15T08:35:25.922Z,8.47
2018-04-15T08:37:52.663Z,8.97
2018-04-15T08:40:19.376Z,8.47
2018-04-15T08:42:46.105Z,8.97
2018-04-15T08:45:12.812Z,8.63
2018-04-15T08:47:39.547Z,10.60
2018-04-15T08:50:06.260Z,10.53
2018-04-15T08:52:33.208Z,10.57
2018-04-15T08:54:59.924Z,9.57
2018-04-15T08:57:26.631Z,10.30
2018-04-15T08:59:53.394Z,9.90
2018-04-15T09:02:20.104Z,10.00
2018-04-15T09:04:46.820Z,9.90
2018-04-15T09:07:13.524Z,10.30
2018-04-15T09:09:40.846Z,10.57
2018-04-15T09:12:07.611Z,9.90
2018-04-15T09:14:34.343Z,10.07
2018-04-15T09:17:01.051Z,10.27
2018-04-15T09:19:27.854Z,9.80
2018-04-15T09:21:54.563Z,10.77
2018-04-15T09:24:21.518Z,10.97
2018-04-15T09:26:48.243Z,10.37
2018-04-15T09:29:15.224Z,10.23
2018-04-15T09:31:41.958Z,11.07
2018-04-15T09:34:08.663Z,10.37
2018-04-15T09:36:35.410Z,10.83
2018-04-15T09:39:02.116Z,10.57
2018-04-15T09:41:28.831Z,11.20
2018-04-15T09:43:55.539Z,11.20
2018-04-15T09:46:22.286Z,10.80
2018-04-15T09:48:49.011Z,11.47
2018-04-15T09:51:15.715Z,12.83
2018-04-15T09:53:42.423Z,14.40
2018-04-15T09:56:09.158Z,14.93
2018-04-15T09:58:35.875Z,13.50
2018-04-15T10:01:03.441Z,12.93
2018-04-15T10:03:30.163Z,13.27
2018-04-15T10:05:56.867Z,14.27
2018-04-15T10:08:23.588Z,13.97
2018-04-15T10:10:50.314Z,13.63
2018-04-15T10:13:17.048Z,14.33
2018-04-15T10:15:43.778Z,15.00
2018-04-15T10:18:10.483Z,14.50
2018-04-15T10:20:37.200Z,14.23
2018-04-15T10:23:03.924Z,14.47
2018-04-15T10:25:30.656Z,14.97
2018-04-15T10:27:57.367Z,15.17
2018-04-15T10:30:24.137Z,15.20
2018-04-15T10:32:50.876Z,15.70
2018-04-15T10:35:17.587Z,16.13
2018-04-15T10:37:44.353Z,15.63
2018-04-15T10:40:11.067Z,14.13
2018-04-15T10:42:37.771Z,15.60
2018-04-15T10:45:04.480Z,16.23
2018-04-15T10:47:31.188Z,15.70
2018-04-15T10:49:57.928Z,15.47
2018-04-15T10:52:24.643Z,15.93
2018-04-15T10:54:51.371Z,14.90
2018-04-15T10:57:18.080Z,17.33
2018-04-15T10:59:45.015Z,16.77
2018-04-15T11:02:11.735Z,15.77
2018-04-15T11:04:38.451Z,15.30
2018-04-15T11:07:05.164Z,15.93
2018-04-15T11:09:31.870Z,16.70
2018-04-15T11:11:58.591Z,18.47
2018-04-15T11:14:25.303Z,16.93
2018-04-15T11:16:52.038Z,18.50
2018-04-15T11:19:18.783Z,18.93
2018-04-15T11:21:45.500Z,18.03
2018-04-15T11:24:12.214Z,18.20
2018-04-15T11:26:38.957Z,17.97
2018-04-15T11:29:05.684Z,18.07
2018-04-15T11:31:32.433Z,18.80
2018-04-15T11:33:59.207Z,18.87
2018-04-15T11:36:25.924Z,18.00
2018-04-15T11:38:52.648Z,19.07
2018-04-15T11:41:19.355Z,20.30
2018-04-15T11:43:46.128Z,19.33
2018-04-15T11:46:12.877Z,18.40
2018-04-15T11:48:39.604Z,19.50
2018-04-15T11:51:06.331Z,18.03
2018-04-15T11:53:33.037Z,17.47
2018-04-15T11:55:59.768Z,18.90
2018-04-15T11:58:26.509Z,19.20
2018-04-15T12:00:53.271Z,18.13
2018-04-15T12:03:20.097Z,21.50
2018-04-15T12:05:47.001Z,17.17
2018-04-15T12:08:13.739Z,17.57
2018-04-15T12:10:40.459Z,18.63
2018-04-15T12:13:07.171Z,18.20
2018-04-15T12:15:33.888Z,18.53
2018-04-15T12:18:00.594Z,19.53
2018-04-15T12:20:27.336Z,21.30
2018-04-15T12:22:54.058Z,20.80
2018-04-15T12:25:20.775Z,20.40
2018-04-15T12:27:47.483Z,20.30
2018-04-15T12:30:14.195Z,19.80
2018-04-15T12:32:40.931Z,18.80
2018-04-15T12:35:07.649Z,18.27
2018-04-15T12:37:34.384Z,18.43
2018-04-15T12:40:01.109Z,17.23
2018-04-15T12:42:27.819Z,15.27
2018-04-15T12:44:54.543Z,14.90
2018-04-15T12:47:21.284Z,14.70
2018-04-15T12:49:47.987Z,13.90
2018-04-15T12:52:14.727Z,15.03
2018-04-15T12:54:41.441Z,14.40
2018-04-15T12:57:08.180Z,14.40
2018-04-15T12:59:34.945Z,13.53
2018-04-15T13:02:01.639Z,14.23
2018-04-15T13:04:28.351Z,14.13
2018-04-15T13:06:57.304Z,14.37
2018-04-15T13:09:24.051Z,12.00
2018-04-15T13:11:50.765Z,11.87
2018-04-15T13:14:25.055Z,10.80
2018-04-15T13:16:51.784Z,10.40
2018-04-15T13:19:18.493Z,10.40
2018-04-15T13:21:45.241Z,9.33
2018-04-15T13:24:11.942Z,8.37
2018-04-15T13:26:38.724Z,8.30
2018-04-15T13:29:05.423Z,7.50
2018-04-15T13:31:32.123Z,7.40
2018-04-15T13:33:58.851Z,7.70
2018-04-15T13:36:25.597Z,7.67
2018-04-15T13:38:52.396Z,7.90
2018-04-15T13:41:19.104Z,7.60
2018-04-15T13:43:45.804Z,8.03
2018-04-15T13:46:12.654Z,14.07
2018-04-15T13:48:39.360Z,8.33
2018-04-15T13:51:06.063Z,9.63
2018-04-15T13:53:32.779Z,45.47
2018-04-15T13:55:59.492Z,95.80
2018-04-15T13:58:26.227Z,21.83
2018-04-15T14:00:52.971Z,12.07
2018-04-15T14:03:19.668Z,8.60
2018-04-15T14:05:46.387Z,9.33
2018-04-15T14:08:13.091Z,8.83
2018-04-15T14:10:39.823Z,25.07
2018-04-15T14:13:06.528Z,15.47
2018-04-15T14:15:33.240Z,25.77
2018-04-15T14:17:59.992Z,11.10
2018-04-15T14:20:26.705Z,14.10
2018-04-15T14:22:53.433Z,9.83
2018-04-15T14:25:20.212Z,19.57
2018-04-15T14:27:46.929Z,13.53
2018-04-15T14:30:13.636Z,6.93
2018-04-15T14:32:40.341Z,6.50
2018-04-15T14:35:07.060Z,5.47
2018-04-15T14:37:33.776Z,6.57
2018-04-15T14:40:00.476Z,6.13
2018-04-15T14:42:27.372Z,7.17
2018-04-15T14:44:54.076Z,6.63
2018-04-15T14:47:20.799Z,6.23
2018-04-15T14:49:47.507Z,5.67
2018-04-15T14:52:14.207Z,6.13
2018-04-15T14:54:40.907Z,5.87
2018-04-15T14:57:07.605Z,5.40
2018-04-15T14:59:34.349Z,5.33
2018-04-15T15:02:01.055Z,5.03
2018-04-15T15:04:27.775Z,5.53
2018-04-15T15:06:54.487Z,5.60
2018-04-15T15:09:21.368Z,5.20
2018-04-15T15:11:48.091Z,5.60
2018-04-15T15:14:14.821Z,5.80
2018-04-15T15:16:41.566Z,5.70
2018-04-15T15:19:08.268Z,6.10
2018-04-15T15:21:35.010Z,6.70
2018-04-15T15:24:01.765Z,7.03
2018-04-15T15:26:28.468Z,7.23
2018-04-15T15:28:55.169Z,7.30
2018-04-15T15:31:22.053Z,6.90
2018-04-15T15:33:48.779Z,7.00
2018-04-15T15:36:15.523Z,7.00
2018-04-15T15:38:42.219Z,6.87
2018-04-15T15:41:08.934Z,6.40
2018-04-15T15:43:35.656Z,6.00
2018-04-15T15:46:02.356Z,6.20
2018-04-15T15:48:29.105Z,5.83
2018-04-15T15:50:55.810Z,6.47
2018-04-15T15:53:22.515Z,6.07
2018-04-15T15:55:49.226Z,7.13
2018-04-15T15:58:15.938Z,6.70
2018-04-15T16:00:42.775Z,8.07
2018-04-15T16:03:09.689Z,7.00
2018-04-15T16:05:36.384Z,6.87
2018-04-15T16:08:03.095Z,6.77
2018-04-15T16:10:29.857Z,9.90
2018-04-15T16:12:56.583Z,8.93
2018-04-15T16:15:23.405Z,7.77
2018-04-15T16:17:50.132Z,6.83
2018-04-15T16:20:16.849Z,7.33
2018-04-15T16:22:43.555Z,6.80
2018-04-15T16:25:10.284Z,6.97
2018-04-15T16:27:36.991Z,7.80
2018-04-15T16:30:03.696Z,7.10
2018-04-15T16:32:30.429Z,7.43
2018-04-15T16:34:57.165Z,7.27
2018-04-15T16:37:23.936Z,7.60
2018-04-15T16:39:50.667Z,7.97
2018-04-15T16:42:17.368Z,8.40
2018-04-15T16:44:44.082Z,7.87
2018-04-15T16:47:10.792Z,7.93
2018-04-15T16:49:37.519Z,7.53
2018-04-15T16:52:04.220Z,8.47
2018-04-15T16:54:30.934Z,8.27
2018-04-15T16:56:57.663Z,7.30
2018-04-15T16:59:24.636Z,7.70
2018-04-15T17:01:51.377Z,6.73
2018-04-15T17:04:18.108Z,6.93
2018-04-15T17:06:44.824Z,6.77
2018-04-15T17:09:11.673Z,6.70
2018-04-15T17:11:38.376Z,6.67
2018-04-15T17:14:05.074Z,6.60
2018-04-15T17:16:31.775Z,6.30
2018-04-15T17:18:58.471Z,6.20
2018-04-15T17:21:25.247Z,7.10
2018-04-15T17:23:51.928Z,7.10
2018-04-15T17:26:18.649Z,6.13
2018-04-15T17:28:45.592Z,6.43
2018-04-15T17:31:12.291Z,6.70
2018-04-15T17:33:39.009Z,7.40
2018-04-15T17:36:05.712Z,8.20
2018-04-15T17:38:32.442Z,7.63
2018-04-15T17:40:59.167Z,7.80
2018-04-15T17:43:25.895Z,7.37
2018-04-15T17:45:52.635Z,8.27
2018-04-15T17:48:19.412Z,8.50
2018-04-15T17:50:46.115Z,8.87
2018-04-15T17:53:18.176Z,9.40
2018-04-15T17:55:45.160Z,9.70
2018-04-15T17:58:12.003Z,11.10
2018-04-15T18:00:38.728Z,11.13
2018-04-15T18:03:05.442Z,10.40
2018-04-15T18:05:32.225Z,10.60
2018-04-15T18:07:58.951Z,11.07
2018-04-15T18:10:25.704Z,11.20
2018-04-15T18:12:52.412Z,12.70
2018-04-15T18:15:19.140Z,12.80
2018-04-15T18:17:45.855Z,12.60
2018-04-15T18:20:12.563Z,11.93
2018-04-15T18:22:39.303Z,11.07
2018-04-15T18:25:06.018Z,10.67
2018-04-15T18:27:32.739Z,10.43
2018-04-15T18:29:59.448Z,10.20
2018-04-15T18:32:26.158Z,9.97
2018-04-15T18:34:52.879Z,10.03
2018-04-15T18:37:19.595Z,10.33
2018-04-15T18:39:46.311Z,11.13
2018-04-15T18:42:13.036Z,11.07
2018-04-15T18:44:39.747Z,10.53
2018-04-15T18:47:06.483Z,11.13
2018-04-15T18:49:33.194Z,11.30
2018-04-15T18:52:00.182Z,10.80
2018-04-15T18:54:26.895Z,11.27
2018-04-15T18:56:53.624Z,11.13
2018-04-15T18:59:20.374Z,11.00
2018-04-15T19:01:47.104Z,10.90
2018-04-15T19:04:13.818Z,10.33
2018-04-15T19:06:40.524Z,12.03
2018-04-15T19:09:07.256Z,10.87
2018-04-15T19:11:33.976Z,10.43
2018-04-15T19:14:00.687Z,9.40
2018-04-15T19:16:27.434Z,10.80
2018-04-15T19:18:54.152Z,10.83
2018-04-15T19:21:20.860Z,10.40
2018-04-15T19:23:47.563Z,10.33
2018-04-15T19:26:14.268Z,10.70
2018-04-15T19:28:41.000Z,10.30
2018-04-15T19:31:07.711Z,10.53
2018-04-15T19:33:34.415Z,10.17
2018-04-15T19:36:01.199Z,9.70
2018-04-15T19:38:27.916Z,10.27
2018-04-15T19:40:54.665Z,10.30
2018-04-15T19:43:21.403Z,10.40
2018-04-15T19:45:48.122Z,10.70
2018-04-15T19:48:14.870Z,11.50
2018-04-15T19:50:41.726Z,10.13
2018-04-15T19:53:08.593Z,11.73
2018-04-15T19:55:35.313Z,10.87
2018-04-15T19:58:02.024Z,11.83
2018-04-15T20:00:28.816Z,12.30
2018-04-15T20:02:55.537Z,11.27
2018-04-15T20:05:22.274Z,12.80
2018-04-15T20:07:48.988Z,11.60
2018-04-15T20:10:15.749Z,12.60
2018-04-15T20:12:42.488Z,11.90
2018-04-15T20:15:09.204Z,12.43
2018-04-15T20:17:36.114Z,11.40
2018-04-15T20:20:02.824Z,11.77
2018-04-15T20:22:29.544Z,12.07
2018-04-15T20:24:56.248Z,11.53
2018-04-15T20:27:22.959Z,12.40
2018-04-15T20:29:49.992Z,12.47
2018-04-15T20:32:16.699Z,12.10
2018-04-15T20:34:43.411Z,11.60
2018-04-15T20:37:10.118Z,12.73
2018-04-15T20:39:36.835Z,11.53
2018-04-15T20:42:03.589Z,12.00
2018-04-15T20:44:30.296Z,12.10
2018-04-15T20:46:57.007Z,12.63
2018-04-15T20:49:23.739Z,11.77
2018-04-15T20:51:50.462Z,13.50
2018-04-15T20:54:17.198Z,13.47
2018-04-15T20:56:43.912Z,12.93
2018-04-15T20:59:10.659Z,13.23
2018-04-15T21:01:37.368Z,14.17
2018-04-15T21:04:04.088Z,14.47
2018-04-15T21:06:30.827Z,15.03
2018-04-15T21:08:57.560Z,14.00
2018-04-15T21:11:24.271Z,14.67
2018-04-15T21:13:50.990Z,14.60
2018-04-15T21:16:18.084Z,14.70
2018-04-15T21:18:44.896Z,15.23
2018-04-15T21:21:11.609Z,15.83
2018-04-15T21:23:38.311Z,15.10
2018-04-15T21:26:05.020Z,15.37
2018-04-15T21:28:31.730Z,16.63
2018-04-15T21:30:58.483Z,15.97
2018-04-15T21:33:25.192Z,16.93
2018-04-15T21:35:51.935Z,15.47
2018-04-15T21:38:18.664Z,16.87
2018-04-15T21:40:45.395Z,17.23
2018-04-15T21:43:12.156Z,17.07
2018-04-15T21:45:38.867Z,17.17
2018-04-15T21:48:05.796Z,17.23
2018-04-15T21:50:32.540Z,17.73
2018-04-15T21:52:59.251Z,17.07
2018-04-15T21:55:25.993Z,17.07
2018-04-15T21:57:52.700Z,16.77
2018-04-15T22:00:19.409Z,18.40
2018-04-15T22:02:46.128Z,16.40
2018-04-15T22:05:12.838Z,18.77
2018-04-15T22:07:39.577Z,19.33
2018-04-15T22:10:06.301Z,17.17
2018-04-15T22:12:33.020Z,16.50
2018-04-15T22:14:59.727Z,19.30
2018-04-15T22:17:26.436Z,18.93
2018-04-15T22:19:53.162Z,18.07
2018-04-15T22:22:19.872Z,17.53
2018-04-15T22:24:46.674Z,17.90
2018-04-15T22:27:13.383Z,18.60
2018-04-15T22:29:40.091Z,19.70
2018-04-15T22:32:06.813Z,18.07
2018-04-15T22:34:33.530Z,18.63
2018-04-15T22:37:00.284Z,18.90
2018-04-15T22:39:26.988Z,19.17
2018-04-15T22:41:53.704Z,17.57
2018-04-15T22:44:20.422Z,18.00
2018-04-15T22:46:47.216Z,17.87
2018-04-15T22:49:19.551Z,17.03
2018-04-15T22:51:46.265Z,18.53
2018-04-15T22:54:13.006Z,18.70
2018-04-15T22:56:43.673Z,19.73
2018-04-15T22:59:10.438Z,18.40
2018-04-15T23:01:37.161Z,18.90
2018-04-15T23:04:04.603Z,19.00
2018-04-15T23:06:31.356Z,17.97
2018-04-15T23:08:58.093Z,20.00
2018-04-15T23:11:25.741Z,18.70
2018-04-15T23:13:52.476Z,17.93
2018-04-15T23:16:51.079Z,17.37
2018-04-15T23:19:17.882Z,18.07
2018-04-15T23:21:44.635Z,17.40
2018-04-15T23:24:11.358Z,18.03
2018-04-15T23:26:38.671Z,17.43
2018-04-15T23:29:05.441Z,17.40
2018-04-15T23:31:32.190Z,17.70
2018-04-15T23:33:58.908Z,17.87
2018-04-15T23:36:25.629Z,17.57
2018-04-15T23:38:52.363Z,17.33
2018-04-15T23:41:19.084Z,18.63
2018-04-15T23:43:45.848Z,18.50
2018-04-15T23:46:12.574Z,20.63
2018-04-15T23:48:39.289Z,18.53
2018-04-15T23:51:06.013Z,17.77
2018-04-15T23:53:32.739Z,18.33
2018-04-15T23:55:59.483Z,18.73
2018-04-15T23:58:26.207Z,19.10
